Time;durP1;ratioP1;P1;durP2;ratioP2;P2;SDS_P1;SDS_P2;PMS_P1;PMS_P2;Temp;Humidity;BMP_temperature;BMP_pressure;BME280_temperature;BME280_humidity;BME280_pressure;Samples;Min_cycle;Max_cycle;Signal;HPM_P1;HPM_P2
2022/09/13 00:01:38;;;;;;;3.40;2.47;;;19.10;99.90;;;;;;6074049;23;20343;-80
2022/09/13 00:04:04;;;;;;;2.95;2.70;;;19.10;99.90;;;;;;6074165;23;20013;-80
2022/09/13 00:06:40;;;;;;;3.20;2.30;;;19.00;99.90;;;;;;6027171;23;20007;-81
2022/09/13 00:09:07;;;;;;;2.63;2.42;;;19.00;99.90;;;;;;6065728;23;20058;-81
2022/09/13 00:11:38;;;;;;;3.28;2.60;;;19.00;99.90;;;;;;6046107;23;20015;-81
2022/09/13 00:14:08;;;;;;;2.38;1.98;;;18.90;99.90;;;;;;6092457;23;20078;-82
2022/09/13 00:17:00;;;;;;;3.08;2.33;;;18.90;99.90;;;;;;6081100;23;20029;-81
2022/09/13 00:19:27;;;;;;;4.30;2.90;;;18.90;99.90;;;;;;6022790;23;20075;-81
2022/09/13 00:21:59;;;;;;;3.00;2.28;;;19.00;99.90;;;;;;6045906;23;20059;-81
2022/09/13 00:24:33;;;;;;;3.13;2.47;;;19.00;99.90;;;;;;6045737;23;20075;-81
2022/09/13 00:27:11;;;;;;;4.05;2.97;;;18.90;99.90;;;;;;6044727;23;20011;-81
2022/09/13 00:29:48;;;;;;;3.00;2.20;;;18.90;99.90;;;;;;6021068;23;19999;-81
2022/09/13 00:32:22;;;;;;;3.13;2.60;;;18.90;99.90;;;;;;6069630;23;20015;-81
2022/09/13 00:34:48;;;;;;;4.07;2.90;;;18.80;99.90;;;;;;6044619;23;20066;-81
2022/09/13 00:37:17;;;;;;;3.35;3.05;;;18.80;99.90;;;;;;6082933;23;20006;-82
2022/09/13 00:39:48;;;;;;;4.13;2.83;;;18.90;99.90;;;;;;6024438;23;20458;-82
2022/09/13 00:42:25;;;;;;;3.15;2.85;;;18.90;99.90;;;;;;6073442;23;20018;-81
2022/09/13 00:44:59;;;;;;;3.63;3.08;;;18.80;99.90;;;;;;6073501;23;20003;-81
2022/09/13 00:47:48;;;;;;;3.60;3.30;;;18.90;99.90;;;;;;6055212;23;20017;-81
2022/09/13 00:50:14;;;;;;;4.13;3.50;;;18.80;99.90;;;;;;6045721;23;20001;-81
2022/09/13 00:52:46;;;;;;;3.17;2.88;;;18.80;99.90;;;;;;6021406;23;19995;-80
2022/09/13 00:55:23;;;;;;;6.13;3.47;;;18.80;99.90;;;;;;6069583;23;20005;-81
2022/09/13 00:57:51;;;;;;;3.40;3.10;;;18.80;99.90;;;;;;6079575;23;20111;-81
2022/09/13 01:00:19;;;;;;;4.85;3.00;;;18.80;99.90;;;;;;6066803;23;19999;-81
2022/09/13 01:02:54;;;;;;;3.33;2.90;;;18.80;99.90;;;;;;6024199;23;20014;-81
2022/09/13 01:05:37;;;;;;;4.05;3.47;;;18.80;99.90;;;;;;6047093;23;19999;-81
2022/09/13 01:08:14;;;;;;;4.18;3.78;;;18.80;99.90;;;;;;6018951;23;20006;-81
2022/09/13 01:10:43;;;;;;;3.58;3.25;;;18.80;99.90;;;;;;6043576;23;20007;-81
2022/09/13 01:13:16;;;;;;;3.80;3.50;;;18.70;99.90;;;;;;6063740;23;20018;-81
2022/09/13 01:15:43;;;;;;;3.95;3.55;;;18.70;99.90;;;;;;6042977;23;20021;-80
2022/09/13 01:18:10;;;;;;;3.80;3.28;;;18.70;99.90;;;;;;6043488;23;20010;-80
2022/09/13 01:21:04;;;;;;;4.18;3.80;;;18.70;99.90;;;;;;6092229;23;20005;-81
2022/09/13 01:24:15;;;;;;;4.20;3.80;;;18.70;99.90;;;;;;6043277;23;20003;-80
2022/09/13 01:27:17;;;;;;;4.70;3.40;;;18.70;99.90;;;;;;6084638;23;20019;-80
2022/09/13 01:30:17;;;;;;;4.70;3.85;;;18.60;99.90;;;;;;6090921;23;20009;-81
2022/09/13 01:33:11;;;;;;;4.80;4.35;;;18.60;99.90;;;;;;6093605;23;19994;-80
2022/09/13 01:36:10;;;;;;;4.18;3.78;;;18.60;99.90;;;;;;6018562;23;20007;-81
2022/09/13 01:38:49;;;;;;;;;;;18.60;99.90;;;;;;6088884;23;20002;-81
2022/09/13 01:41:36;;;;;;;4.63;3.85;;;18.60;99.90;;;;;;6097254;23;19905;-81
2022/09/13 01:44:14;;;;;;;5.15;4.43;;;18.60;99.90;;;;;;6095700;23;20033;-81
2022/09/13 01:46:53;;;;;;;5.25;4.75;;;18.60;99.90;;;;;;6074651;23;19983;-81
2022/09/13 01:49:35;;;;;;;4.63;4.10;;;18.60;99.90;;;;;;6101306;23;20014;-81
2022/09/13 01:52:19;;;;;;;5.65;4.90;;;18.50;99.90;;;;;;6102204;23;20001;-82
2022/09/13 01:55:04;;;;;;;5.63;5.13;;;18.60;99.90;;;;;;6067097;23;20010;-82
2022/09/13 01:57:55;;;;;;;4.70;4.22;;;18.50;99.90;;;;;;6046048;23;20051;-83
2022/09/13 02:00:21;;;;;;;5.40;4.35;;;18.50;99.90;;;;;;6092297;23;20093;-80
2022/09/13 02:03:06;;;;;;;4.60;4.20;;;18.50;99.90;;;;;;6089578;23;20010;-81
2022/09/13 02:05:56;;;;;;;5.85;4.18;;;18.50;99.90;;;;;;6103582;23;20059;-79
2022/09/13 02:08:44;;;;;;;4.97;4.47;;;18.50;99.90;;;;;;6068986;23;20067;-79
2022/09/13 02:11:13;;;;;;;4.85;4.35;;;18.50;99.90;;;;;;6101675;23;19994;-80
2022/09/13 02:13:46;;;;;;;4.65;4.07;;;18.50;99.90;;;;;;6093954;23;20082;-80
2022/09/13 02:16:25;;;;;;;5.07;4.28;;;18.50;99.90;;;;;;6093492;23;20058;-80
2022/09/13 02:18:58;;;;;;;4.90;4.47;;;18.50;99.90;;;;;;6092063;23;20066;-80
2022/09/13 02:21:31;;;;;;;6.20;4.32;;;18.50;99.90;;;;;;6087506;23;20007;-80
2022/09/13 02:24:05;;;;;;;5.20;4.65;;;18.40;99.90;;;;;;6070943;23;20011;-80
2022/09/13 02:26:35;;;;;;;4.57;4.18;;;18.50;99.90;;;;;;6081680;23;20011;-80
2022/09/13 02:29:06;;;;;;;5.32;4.82;;;18.50;99.90;;;;;;6072438;23;20007;-80
2022/09/13 02:31:38;;;;;;;4.50;4.10;;;18.50;99.90;;;;;;6034878;23;20024;-80
2022/09/13 02:34:11;;;;;;;6.18;5.45;;;18.50;99.90;;;;;;6050046;23;20010;-80
2022/09/13 02:36:40;;;;;;;6.28;5.60;;;18.50;99.90;;;;;;6022329;23;20501;-80
2022/09/13 02:39:14;;;;;;;6.20;4.97;;;18.50;99.90;;;;;;6068294;23;20014;-80
2022/09/13 02:41:52;;;;;;;5.05;4.55;;;18.50;99.90;;;;;;6078237;23;20009;-80
2022/09/13 02:44:29;;;;;;;6.65;6.00;;;18.50;99.90;;;;;;5997664;23;20019;-80
2022/09/13 02:46:55;;;;;;;5.03;4.53;;;18.50;99.90;;;;;;6021540;23;20003;-80
2022/09/13 02:49:44;;;;;;;4.82;4.38;;;18.50;99.90;;;;;;6070831;23;20010;-80
2022/09/13 02:52:32;;;;;;;5.22;4.72;;;18.50;99.90;;;;;;6080400;23;20010;-80
2022/09/13 02:55:24;;;;;;;5.07;4.20;;;18.50;99.90;;;;;;6045699;23;20444;-80
2022/09/13 02:58:01;;;;;;;3.92;3.30;;;18.50;99.90;;;;;;6069035;23;20017;-80
2022/09/13 03:00:28;;;;;;;4.47;4.07;;;18.50;99.90;;;;;;6056003;23;20003;-80
2022/09/13 03:02:57;;;;;;;4.32;3.92;;;18.60;99.90;;;;;;6021109;23;20015;-80
2022/09/13 03:05:23;;;;;;;5.95;4.80;;;18.50;99.90;;;;;;6046364;23;19999;-80
2022/09/13 03:07:59;;;;;;;4.72;4.15;;;18.50;99.90;;;;;;6042947;23;20003;-80
2022/09/13 03:10:35;;;;;;;4.60;4.05;;;18.60;99.90;;;;;;6077079;23;20003;-80
2022/09/13 03:13:14;;;;;;;5.63;4.40;;;18.50;99.90;;;;;;6068572;23;20006;-80
2022/09/13 03:15:56;;;;;;;4.97;4.28;;;18.50;99.90;;;;;;6076503;23;20018;-80
2022/09/13 03:18:36;;;;;;;4.93;4.13;;;18.50;99.90;;;;;;6019508;23;20017;-80
2022/09/13 03:21:38;;;;;;;6.30;5.13;;;18.50;99.90;;;;;;6046033;23;20075;-80
2022/09/13 03:24:14;;;;;;;4.90;4.35;;;18.50;99.90;;;;;;6071247;23;20007;-80
2022/09/13 03:26:45;;;;;;;4.97;4.47;;;18.50;99.90;;;;;;6079646;23;20007;-80
2022/09/13 03:29:47;;;;;;;5.15;4.03;;;18.50;99.90;;;;;;6080730;23;20025;-80
2022/09/13 03:32:44;;;;;;;5.22;4.65;;;18.50;99.90;;;;;;5998790;23;20062;-80
2022/09/13 03:35:45;;;;;;;4.65;3.88;;;18.50;99.90;;;;;;6094723;23;20007;-80
2022/09/13 03:38:16;;;;;;;4.60;4.00;;;18.50;99.90;;;;;;6079813;23;20018;-80
2022/09/13 03:40:48;;;;;;;4.03;3.65;;;18.50;99.90;;;;;;6079710;23;20003;-80
2022/09/13 03:43:17;;;;;;;4.32;3.90;;;18.50;99.90;;;;;;6044563;23;20422;-80
2022/09/13 03:45:51;;;;;;;5.20;4.30;;;18.50;99.90;;;;;;6070515;23;19999;-80
2022/09/13 03:48:19;;;;;;;8.82;4.78;;;18.50;99.90;;;;;;6044509;23;20003;-80
2022/09/13 03:50:46;;;;;;;5.10;4.60;;;18.50;99.90;;;;;;6021620;23;20003;-80
2022/09/13 03:53:18;;;;;;;5.65;4.70;;;18.50;99.90;;;;;;6045345;23;20376;-80
2022/09/13 03:55:45;;;;;;;5.05;4.53;;;18.50;99.90;;;;;;6020919;23;20011;-80
2022/09/13 03:58:14;;;;;;;5.30;4.80;;;18.50;99.90;;;;;;6044117;23;20041;-80
2022/09/13 04:00:40;;;;;;;4.68;4.20;;;18.50;99.90;;;;;;6050131;23;20011;-80
2022/09/13 04:03:08;;;;;;;4.90;4.38;;;18.60;99.90;;;;;;6092665;23;20015;-80
2022/09/13 04:05:34;;;;;;;5.55;4.90;;;18.50;99.90;;;;;;6045220;23;20070;-80
2022/09/13 04:08:04;;;;;;;5.20;4.70;;;18.60;99.90;;;;;;6039533;23;20021;-80
2022/09/13 04:10:32;;;;;;;5.63;5.13;;;18.50;99.90;;;;;;6074633;23;20338;-80
2022/09/13 04:12:59;;;;;;;5.85;4.97;;;18.50;99.90;;;;;;6070466;23;20017;-80
2022/09/13 04:15:26;;;;;;;4.95;4.45;;;18.50;99.90;;;;;;6045079;23;20007;-80
2022/09/13 04:17:53;;;;;;;5.25;4.75;;;18.50;99.90;;;;;;6068809;23;20445;-80
2022/09/13 04:20:19;;;;;;;5.47;4.97;;;18.50;99.90;;;;;;5998064;23;20018;-80
2022/09/13 04:22:56;;;;;;;5.65;5.15;;;18.50;99.90;;;;;;6069859;23;20022;-80
2022/09/13 04:25:35;;;;;;;6.45;5.80;;;18.50;99.90;;;;;;6126716;23;20010;-86
2022/09/13 04:28:29;;;;;;;5.63;5.05;;;18.50;99.90;;;;;;6096214;23;20017;-85
2022/09/13 04:31:24;;;;;;;4.97;4.47;;;18.40;99.90;;;;;;6077762;23;20006;-85
2022/09/13 04:34:27;;;;;;;;;;;;;;;;;;;;;
2022/09/13 04:37:12;;;;;;;6.18;5.47;;;18.40;99.90;;;;;;6124743;23;20006;-84
2022/09/13 04:40:10;;;;;;;6.00;4.57;;;18.40;99.90;;;;;;6096519;23;20033;-84
2022/09/13 04:42:46;;;;;;;5.80;5.30;;;18.40;99.90;;;;;;6100280;23;20006;-85
2022/09/13 04:46:03;;;;;;;5.35;4.85;;;18.40;99.90;;;;;;6100434;23;20022;-85
2022/09/13 04:48:50;;;;;;;6.95;5.63;;;18.40;99.90;;;;;;6095905;23;20014;-85
2022/09/13 04:51:24;;;;;;;6.68;4.85;;;18.40;99.90;;;;;;6121350;23;20010;-84
2022/09/13 04:54:09;;;;;;;5.40;4.90;;;18.30;99.90;;;;;;6096129;23;20005;-84
2022/09/13 04:56:48;;;;;;;5.63;4.88;;;18.30;99.90;;;;;;6117947;23;20338;-84
2022/09/13 04:59:20;;;;;;;6.80;6.07;;;18.30;99.90;;;;;;6125073;23;20446;-84
2022/09/13 05:01:55;;;;;;;6.38;5.78;;;18.30;99.90;;;;;;6125424;23;20002;-85
2022/09/13 05:04:33;;;;;;;6.70;5.85;;;18.30;99.90;;;;;;6102436;23;20010;-84
2022/09/13 05:07:10;;;;;;;7.00;5.35;;;18.30;99.90;;;;;;6102576;23;20306;-85
2022/09/13 05:09:47;;;;;;;6.10;5.30;;;18.30;99.90;;;;;;6100633;23;20010;-84
2022/09/13 05:12:23;;;;;;;6.45;5.13;;;18.30;99.90;;;;;;6125353;23;20002;-82
2022/09/13 05:14:52;;;;;;;6.88;6.20;;;18.40;99.90;;;;;;6100371;23;20017;-85
2022/09/13 05:21:10;;;;;;;6.10;5.32;;;18.40;99.90;;;;;;6126719;23;20013;-85
2022/09/13 05:23:58;;;;;;;5.85;5.25;;;18.40;99.90;;;;;;6101232;23;20017;-85
2022/09/13 05:26:35;;;;;;;6.28;5.68;;;18.40;99.90;;;;;;6100938;23;20010;-85
2022/09/13 05:29:27;;;;;;;6.95;5.90;;;18.40;99.90;;;;;;6157196;23;20006;-85
2022/09/13 05:32:45;;;;;;;6.15;5.55;;;18.40;99.90;;;;;;6149574;23;20010;-85
2022/09/13 05:35:25;;;;;;;9.50;7.07;;;18.40;99.90;;;;;;6089370;23;20006;-85
2022/09/13 05:38:05;;;;;;;7.32;6.00;;;18.40;99.90;;;;;;6124748;23;20438;-85
2022/09/13 05:41:02;;;;;;;7.07;6.38;;;18.50;99.90;;;;;;6098344;23;20006;-85
2022/09/13 05:43:54;;;;;;;6.72;6.00;;;18.50;99.90;;;;;;6099396;23;20010;-85
2022/09/13 05:46:36;;;;;;;6.80;5.28;;;18.50;99.90;;;;;;6124071;23;20005;-85
2022/09/13 05:52:27;;;;;;;5.55;5.05;;;18.50;99.90;;;;;;6149346;23;20454;-85
2022/09/13 05:55:21;;;;;;;6.68;5.38;;;18.60;99.90;;;;;;6087508;23;20021;-84
2022/09/13 05:57:57;;;;;;;;;;;18.60;99.90;;;;;;6078532;23;20010;-84
2022/09/13 06:00:39;;;;;;;5.55;5.05;;;18.70;99.90;;;;;;6100124;23;19912;-84
2022/09/13 06:03:09;;;;;;;7.90;6.13;;;18.70;99.90;;;;;;6124071;23;20465;-85
2022/09/13 06:05:47;;;;;;;7.05;6.05;;;18.70;99.90;;;;;;6123237;23;20009;-83
2022/09/13 06:08:27;;;;;;;6.43;5.70;;;18.80;99.90;;;;;;6101655;23;20009;-83
2022/09/13 06:10:55;;;;;;;6.57;5.88;;;18.80;99.90;;;;;;6101856;23;20013;-82
2022/09/13 06:13:47;;;;;;;7.03;6.22;;;18.90;99.90;;;;;;6102635;23;20006;-80
2022/09/13 06:16:15;;;;;;;;;;;19.00;99.90;;;;;;6103160;23;20010;-82
2022/09/13 06:18:42;;;;;;;9.05;8.15;;;19.00;99.90;;;;;;6150709;23;19919;-81
2022/09/13 06:21:16;;;;;;;8.48;7.18;;;19.10;99.90;;;;;;6151375;23;20009;-81
2022/09/13 06:23:50;;;;;;;8.45;7.65;;;19.20;99.90;;;;;;6101799;23;20010;-81
2022/09/13 06:26:19;;;;;;;8.55;7.13;;;19.30;99.90;;;;;;6125234;23;20476;-81
2022/09/13 06:28:51;;;;;;;13.88;12.40;;;19.30;99.90;;;;;;6127364;23;20001;-81
2022/09/13 06:31:19;;;;;;;12.00;10.80;;;19.40;99.90;;;;;;6101175;23;20006;-80
2022/09/13 06:33:46;;;;;;;9.70;8.77;;;19.50;99.90;;;;;;6126963;23;20009;-80
2022/09/13 06:36:15;;;;;;;10.63;9.05;;;19.50;99.90;;;;;;6125253;23;20466;-81
2022/09/13 06:38:51;;;;;;;9.27;8.38;;;19.50;99.90;;;;;;6100585;23;20010;-81
2022/09/13 06:41:22;;;;;;;8.43;7.40;;;19.70;99.90;;;;;;6137783;23;20009;-81
2022/09/13 06:43:57;;;;;;;8.48;7.57;;;19.80;99.90;;;;;;6126294;23;20014;-81
2022/09/13 06:46:32;;;;;;;8.27;7.47;;;19.80;99.90;;;;;;6139749;23;20108;-81
2022/09/13 06:49:06;;;;;;;8.85;7.70;;;20.00;99.90;;;;;;6128080;23;20331;-82
2022/09/13 06:51:34;;;;;;;8.15;7.30;;;20.00;99.90;;;;;;6152699;23;20450;-81
2022/09/13 06:54:02;;;;;;;7.75;6.95;;;20.10;99.90;;;;;;6123705;23;20006;-81
2022/09/13 06:56:31;;;;;;;9.50;7.95;;;20.10;99.90;;;;;;6124325;23;20010;-82
2022/09/13 06:59:00;;;;;;;8.23;7.20;;;20.20;99.90;;;;;;6126230;23;20009;-82
2022/09/13 07:01:29;;;;;;;8.48;7.68;;;20.30;99.90;;;;;;6126729;23;20293;-82
2022/09/13 07:04:01;;;;;;;9.05;8.15;;;20.50;99.90;;;;;;6124561;23;20002;-82
2022/09/13 07:06:33;;;;;;;10.27;9.10;;;20.50;99.90;;;;;;6124075;23;20014;-83
2022/09/13 07:09:03;;;;;;;;;;;20.60;99.90;;;;;;6148765;23;20009;-82
2022/09/13 07:11:34;;;;;;;13.05;9.05;;;20.60;99.90;;;;;;6099899;23;19905;-82
2022/09/13 07:14:07;;;;;;;12.57;10.10;;;20.80;99.90;;;;;;6099672;23;20014;-83
2022/09/13 07:16:47;;;;;;;11.77;10.38;;;20.80;99.90;;;;;;6099561;23;20009;-82
2022/09/13 07:19:21;;;;;;;13.52;11.15;;;20.90;99.90;;;;;;6148045;23;20009;-82
2022/09/13 07:21:49;;;;;;;15.15;11.82;;;21.00;99.90;;;;;;6099504;23;20006;-82
2022/09/13 07:24:22;;;;;;;13.25;11.20;;;21.00;99.90;;;;;;6097732;23;20323;-82
2022/09/13 07:26:49;;;;;;;13.02;10.65;;;21.10;99.90;;;;;;6144616;23;20017;-81
2022/09/13 07:29:22;;;;;;;13.15;10.52;;;21.10;99.90;;;;;;6100105;23;20374;-82
2022/09/13 07:31:53;;;;;;;11.40;8.68;;;21.10;99.90;;;;;;6100494;23;20319;-81
2022/09/13 07:34:22;;;;;;;9.40;8.02;;;21.20;99.90;;;;;;6150802;23;20006;-82
2022/09/13 07:36:49;;;;;;;10.05;8.18;;;21.20;99.90;;;;;;6150039;23;20010;-81
2022/09/13 07:39:18;;;;;;;10.68;9.38;;;21.30;99.90;;;;;;6124054;23;20013;-81
2022/09/13 07:41:47;;;;;;;11.15;8.73;;;21.40;99.90;;;;;;6149006;23;20010;-81
2022/09/13 07:44:16;;;;;;;14.23;11.45;;;21.40;99.90;;;;;;6147757;23;20018;-81
2022/09/13 07:46:46;;;;;;;14.95;11.52;;;21.50;99.90;;;;;;6149461;23;20477;-80
2022/09/13 07:49:15;;;;;;;9.43;7.82;;;21.70;99.90;;;;;;6148408;23;20008;-82
2022/09/13 07:51:45;;;;;;;10.23;8.45;;;21.80;99.90;;;;;;6147977;23;20017;-82
2022/09/13 07:54:17;;;;;;;12.93;9.60;;;21.90;99.90;;;;;;6148637;23;20012;-82
2022/09/13 07:56:50;;;;;;;10.00;7.72;;;21.90;99.90;;;;;;6075829;23;20014;-82
2022/09/13 07:59:23;;;;;;;9.32;6.72;;;22.20;99.90;;;;;;6100731;23;20014;-81
2022/09/13 08:02:11;;;;;;;7.85;5.93;;;22.30;99.90;;;;;;6099790;23;20362;-83
2022/09/13 08:04:49;;;;;;;4.75;4.18;;;22.50;99.90;;;;;;6146749;23;20347;-83
2022/09/13 08:07:23;;;;;;;7.18;5.05;;;22.60;99.90;;;;;;6106708;23;20002;-83
2022/09/13 08:09:51;;;;;;;6.57;4.68;;;22.70;99.90;;;;;;6129354;23;20002;-82
2022/09/13 08:12:23;;;;;;;5.85;4.63;;;22.80;99.90;;;;;;6104920;23;20010;-83
2022/09/13 08:14:50;;;;;;;;;;;22.80;99.90;;;;;;6104724;23;20442;-83
2022/09/13 08:17:35;;;;;;;4.47;3.53;;;22.90;99.90;;;;;;6106887;23;19905;-83
2022/09/13 08:20:13;;;;;;;8.25;4.15;;;23.00;99.90;;;;;;6105129;23;20341;-83
2022/09/13 08:22:51;;;;;;;12.27;6.97;;;23.10;99.90;;;;;;6105829;23;20014;-83
2022/09/13 08:25:37;;;;;;;8.40;6.38;;;23.20;99.90;;;;;;6128977;23;20010;-83
2022/09/13 08:28:14;;;;;;;13.45;9.65;;;23.30;99.90;;;;;;6129039;23;20018;-82
2022/09/13 08:30:48;;;;;;;10.52;8.48;;;23.30;99.90;;;;;;6163026;23;20326;-83
2022/09/13 08:33:30;;;;;;;9.63;8.50;;;23.30;99.90;;;;;;6130509;23;20009;-82
2022/09/13 08:36:19;;;;;;;11.40;9.30;;;23.30;99.90;;;;;;6151607;23;19997;-83
2022/09/13 08:38:58;;;;;;;14.13;12.50;;;23.30;99.90;;;;;;6127730;23;20002;-82
2022/09/13 08:41:41;;;;;;;13.70;11.82;;;23.50;99.90;;;;;;6103800;23;20342;-82
2022/09/13 08:44:29;;;;;;;13.50;9.98;;;23.60;99.90;;;;;;6129158;23;20006;-82
2022/09/13 08:47:20;;;;;;;11.55;9.43;;;23.60;99.90;;;;;;6128568;23;20460;-83
2022/09/13 08:50:20;;;;;;;11.40;9.02;;;23.60;99.90;;;;;;6103885;23;20006;-82
2022/09/13 08:53:24;;;;;;;7.90;7.07;;;23.50;99.90;;;;;;6152818;23;20013;-83
2022/09/13 08:56:14;;;;;;;18.25;8.70;;;23.60;99.90;;;;;;6088418;23;20007;-82
2022/09/13 08:59:07;;;;;;;10.30;9.07;;;23.80;99.90;;;;;;6103855;23;20083;-81
2022/09/13 09:01:47;;;;;;;10.05;8.95;;;24.00;99.90;;;;;;6102988;23;20006;-82
2022/09/13 09:05:06;;;;;;;11.18;8.73;;;24.10;99.90;;;;;;6127439;23;20010;-82
2022/09/13 09:07:56;;;;;;;;;;;;;;;;;;;;;
2022/09/13 09:15:09;;;;;;;5.53;4.40;;;24.20;99.90;;;;;;6096980;23;20174;-80
2022/09/13 09:17:51;;;;;;;6.68;5.30;;;24.40;99.90;;;;;;6094694;23;20017;-81
2022/09/13 09:21:21;;;;;;;6.57;4.72;;;24.40;99.90;;;;;;6096448;23;20014;-81
2022/09/13 09:24:15;;;;;;;5.72;4.15;;;24.30;99.90;;;;;;6125601;23;20006;-80
2022/09/13 09:27:02;;;;;;;5.30;4.38;;;24.20;99.90;;;;;;6150308;23;20006;-80
2022/09/13 09:29:37;;;;;;;6.57;5.53;;;24.20;99.90;;;;;;6025973;23;20001;-80
2022/09/13 09:32:24;;;;;;;4.78;4.18;;;24.10;99.90;;;;;;6099760;23;20419;-82
2022/09/13 09:35:51;;;;;;;;;;;;;;;;;;;;;
2022/09/13 09:38:59;;;;;;;4.72;3.70;;;23.90;99.90;;;;;;6125541;23;20014;-81
2022/09/13 09:41:27;;;;;;;3.17;2.65;;;23.90;99.90;;;;;;6096005;23;20036;-80
2022/09/13 09:44:30;;;;;;;3.72;2.33;;;24.00;99.90;;;;;;6150635;23;20009;-81
2022/09/13 09:47:16;;;;;;;;;;;24.00;99.90;;;;;;6094416;23;20010;-81
2022/09/13 09:50:10;;;;;;;15.68;12.27;;;24.00;99.90;;;;;;6124428;23;19904;-80
2022/09/13 09:53:05;;;;;;;5.30;3.85;;;24.00;99.90;;;;;;6125182;23;20013;-80
2022/09/13 09:56:27;;;;;;;2.30;1.55;;;24.00;99.90;;;;;;6077356;23;20006;-81
2022/09/13 09:59:46;;;;;;;3.75;1.50;;;24.00;99.90;;;;;;6125656;23;20010;-81
2022/09/13 10:03:20;;;;;;;;;;;;;;;;;;;;;
2022/09/13 10:06:28;;;;;;;2.78;1.70;;;24.10;99.90;;;;;;6114480;23;20020;-82
2022/09/13 10:09:46;;;;;;;3.13;1.95;;;24.20;99.90;;;;;;6124670;23;20014;-82
2022/09/13 10:13:06;;;;;;;3.43;1.57;;;24.50;99.90;;;;;;6125804;23;20472;-82
2022/09/13 10:15:35;;;;;;;3.97;1.95;;;24.80;99.90;;;;;;6126456;23;20233;-82
2022/09/13 10:18:16;;;;;;;3.95;2.10;;;25.10;99.90;;;;;;6101222;23;20002;-81
2022/09/13 10:21:35;;;;;;;4.05;1.73;;;25.20;99.90;;;;;;6143573;23;20010;-82
2022/09/13 10:28:30;;;;;;;3.80;1.38;;;25.40;99.90;;;;;;6129855;23;20434;-82
2022/09/13 10:31:53;;;;;;;2.63;1.75;;;25.40;99.90;;;;;;6107298;23;20006;-82
2022/09/13 10:35:03;;;;;;;6.43;1.42;;;25.30;99.90;;;;;;6087475;23;20411;-82
2022/09/13 10:38:17;;;;;;;1.85;1.13;;;25.10;99.90;;;;;;6108125;23;20025;-81
2022/09/13 10:42:22;;;;;;;2.53;1.23;;;25.00;99.90;;;;;;6141822;23;20036;-82
2022/09/13 10:45:26;;;;;;;;;;;;;;;;;;;;;
2022/09/13 10:48:17;;;;;;;2.45;1.40;;;25.10;99.90;;;;;;6084044;23;20346;-81
2022/09/13 10:55:28;;;;;;;1.90;0.90;;;25.70;99.90;;;;;;6074164;23;20015;-82
2022/09/13 10:59:36;;;;;;;2.13;1.92;;;25.80;99.60;;;;;;6000521;23;20020;-82
2022/09/13 11:02:50;;;;;;;2.85;1.52;;;25.70;99.40;;;;;;6050861;23;20014;-83
2022/09/13 11:05:38;;;;;;;1.73;0.70;;;25.60;99.10;;;;;;6065258;23;20010;-83
2022/09/13 11:09:20;;;;;;;3.42;1.13;;;25.50;99.30;;;;;;6129152;23;20016;-83
2022/09/13 11:15:35;;;;;;;;;;;26.00;98.90;;;;;;6097790;23;20014;-82
2022/09/13 11:19:03;;;;;;;3.35;0.60;;;26.40;98.10;;;;;;6026403;23;19905;-83
2022/09/13 11:22:19;;;;;;;;;;;;;;;;;;;;;
2022/09/13 11:25:54;;;;;;;1.40;0.55;;;27.40;97.00;;;;;;6045266;23;20018;-83
2022/09/13 11:29:19;;;;;;;3.00;0.65;;;27.80;96.00;;;;;;6059539;23;20009;-84
2022/09/13 11:32:29;;;;;;;2.45;0.45;;;27.70;95.70;;;;;;6051018;23;20007;-83
2022/09/13 11:40:27;;;;;;;1.30;0.60;;;28.20;95.60;;;;;;6100922;23;20017;-84
2022/09/13 11:44:05;;;;;;;3.33;0.30;;;28.90;93.60;;;;;;6090544;23;20003;-82
2022/09/13 11:47:17;;;;;;;1.58;0.38;;;28.40;93.50;;;;;;6063511;23;20111;-82
2022/09/13 11:50:01;;;;;;;1.10;0.30;;;28.10;93.50;;;;;;6040649;23;20015;-82
2022/09/13 11:52:59;;;;;;;0.35;0.20;;;28.40;93.00;;;;;;6068497;23;20011;-82
2022/09/13 11:55:40;;;;;;;0.73;0.30;;;28.70;92.30;;;;;;6067391;23;20462;-82
2022/09/13 11:58:22;;;;;;;0.85;0.25;;;29.10;91.80;;;;;;6074426;23;20459;-79
2022/09/13 12:01:09;;;;;;;1.73;0.50;;;29.30;91.50;;;;;;6020805;23;20010;-82
2022/09/13 12:04:07;;;;;;;4.00;0.38;;;30.20;90.80;;;;;;6019752;23;20007;-83
2022/09/13 12:06:55;;;;;;;0.90;0.25;;;31.00;89.30;;;;;;6044986;23;20473;-83
2022/09/13 12:09:29;;;;;;;0.82;0.20;;;31.50;86.80;;;;;;6042138;23;20339;-82
2022/09/13 12:12:12;;;;;;;1.00;0.40;;;31.10;86.20;;;;;;6090948;23;20010;-83
2022/09/13 12:15:27;;;;;;;0.93;0.30;;;30.70;85.80;;;;;;6065421;23;20013;-82
2022/09/13 12:18:40;;;;;;;1.42;0.40;;;30.00;86.20;;;;;;6044193;23;20007;-83
2022/09/13 12:21:39;;;;;;;1.48;0.30;;;29.10;87.80;;;;;;6045892;23;20007;-83
2022/09/13 12:24:19;;;;;;;1.05;0.30;;;29.50;86.90;;;;;;6042383;23;20018;-82
2022/09/13 12:27:11;;;;;;;2.45;0.30;;;30.60;85.20;;;;;;6041454;23;20351;-82
2022/09/13 12:30:43;;;;;;;3.22;1.10;;;30.90;82.70;;;;;;5988477;23;20120;-83
2022/09/13 12:33:23;;;;;;;2.50;0.40;;;31.00;82.60;;;;;;6059459;23;20039;-84
2022/09/13 12:39:53;;;;;;;1.80;0.30;;;32.50;78.80;;;;;;6043365;23;20011;-84
2022/09/13 12:43:00;;;;;;;0.98;0.20;;;34.00;75.80;;;;;;6042465;23;20014;-84
2022/09/13 12:46:18;;;;;;;;;;;;;;;;;;;;;
2022/09/13 12:49:39;;;;;;;1.52;0.20;;;35.80;68.40;;;;;;6062880;23;20014;-84
2022/09/13 12:52:55;;;;;;;1.55;0.30;;;35.60;66.60;;;;;;6013468;23;20007;-84
2022/09/13 12:55:38;;;;;;;3.15;0.22;;;35.70;65.10;;;;;;6039577;23;20007;-83
2022/09/13 12:59:06;;;;;;;0.85;0.40;;;34.90;65.30;;;;;;6081290;23;20007;-83
2022/09/13 13:03:04;;;;;;;1.05;0.30;;;35.40;64.50;;;;;;6067661;23;20034;-83
2022/09/13 13:05:43;;;;;;;1.35;0.40;;;36.40;62.30;;;;;;5977601;23;20012;-83
2022/09/13 13:08:19;;;;;;;1.17;0.30;;;37.10;60.60;;;;;;6063490;23;20011;-81
2022/09/13 13:11:06;;;;;;;1.73;0.30;;;37.30;58.80;;;;;;6016628;23;19999;-81
2022/09/13 13:14:37;;;;;;;0.77;0.20;;;36.90;58.80;;;;;;6085670;23;20007;-82
2022/09/13 13:17:55;;;;;;;0.80;0.20;;;36.70;58.40;;;;;;5986851;23;20014;-82
2022/09/13 13:21:05;;;;;;;1.30;0.30;;;37.20;57.00;;;;;;6036838;23;20021;-82
2022/09/13 13:24:48;;;;;;;1.95;0.30;;;37.50;56.80;;;;;;6051099;23;20448;-82
2022/09/13 13:27:53;;;;;;;0.50;0.20;;;36.50;56.80;;;;;;6058637;23;20015;-82
2022/09/13 13:30:55;;;;;;;1.70;0.28;;;35.10;58.30;;;;;;6061660;23;20443;-82
2022/09/13 13:34:09;;;;;;;1.48;0.20;;;34.20;58.70;;;;;;6059365;23;19999;-82
2022/09/13 13:40:44;;;;;;;1.27;0.30;;;33.80;59.10;;;;;;6157137;23;20029;-82
2022/09/13 13:48:33;;;;;;;0.95;0.20;;;34.10;57.30;;;;;;6101840;23;20014;-82
2022/09/13 13:51:30;;;;;;;7.22;0.52;;;33.20;58.80;;;;;;6103168;23;20016;-82
2022/09/13 13:54:33;;;;;;;1.75;0.30;;;32.20;60.20;;;;;;6102304;23;20029;-82
2022/09/13 13:57:30;;;;;;;3.15;1.35;;;31.20;61.70;;;;;;6100270;23;20009;-82
2022/09/13 14:00:33;;;;;;;4.05;2.47;;;30.70;62.10;;;;;;6092003;23;20002;-81
2022/09/13 14:03:31;;;;;;;4.22;3.08;;;30.30;62.90;;;;;;6077617;23;20002;-81
2022/09/13 14:06:28;;;;;;;7.90;5.53;;;29.90;63.90;;;;;;6101348;23;20025;-81
2022/09/13 14:09:28;;;;;;;3.40;1.52;;;29.50;64.20;;;;;;6052223;23;20352;-81
2022/09/13 14:12:35;;;;;;;2.17;1.15;;;29.10;65.10;;;;;;6055153;23;20017;-82
2022/09/13 14:15:46;;;;;;;3.97;1.60;;;28.90;65.60;;;;;;6075885;23;20017;-82
2022/09/13 14:18:34;;;;;;;2.28;1.60;;;28.60;65.90;;;;;;6098995;23;20419;-82
2022/09/13 14:21:17;;;;;;;3.72;0.88;;;28.40;65.70;;;;;;6110483;23;20062;-81
2022/09/13 14:24:15;;;;;;;2.15;0.60;;;28.20;66.00;;;;;;6078679;23;20010;-82
2022/09/13 14:26:56;;;;;;;4.32;0.30;;;27.90;66.40;;;;;;6076855;23;20378;-82
2022/09/13 14:30:07;;;;;;;1.40;0.30;;;27.60;66.10;;;;;;6130026;23;20033;-82
2022/09/13 14:33:00;;;;;;;0.75;0.30;;;27.30;66.90;;;;;;6098691;23;20006;-82
2022/09/13 14:35:40;;;;;;;0.90;0.20;;;26.90;68.00;;;;;;6056983;23;20006;-82
2022/09/13 14:38:48;;;;;;;1.02;0.30;;;26.60;69.10;;;;;;6078989;23;20033;-82
2022/09/13 14:41:44;;;;;;;1.63;0.40;;;26.40;70.10;;;;;;6080399;23;20010;-82
2022/09/13 14:44:31;;;;;;;1.13;0.30;;;26.20;71.10;;;;;;6078597;23;20006;-82
2022/09/13 14:47:19;;;;;;;2.40;0.25;;;25.90;71.50;;;;;;6103961;23;20009;-82
2022/09/13 14:49:53;;;;;;;0.73;0.30;;;25.90;72.10;;;;;;6122338;23;20012;-82
2022/09/13 14:52:34;;;;;;;1.83;0.30;;;25.80;72.40;;;;;;6133568;23;20006;-81
2022/09/13 14:55:12;;;;;;;1.42;0.28;;;25.70;72.50;;;;;;6084543;23;20358;-82
2022/09/13 14:57:44;;;;;;;1.50;0.20;;;25.70;73.10;;;;;;6098907;23;20006;-81
2022/09/13 15:00:24;;;;;;;1.17;0.30;;;25.70;73.20;;;;;;6110174;23;20009;-81
2022/09/13 15:03:11;;;;;;;2.63;0.30;;;25.70;73.60;;;;;;6053688;23;20010;-81
2022/09/13 15:05:54;;;;;;;1.50;0.28;;;25.60;73.90;;;;;;6077057;23;20010;-81
2022/09/13 15:08:26;;;;;;;1.05;0.30;;;25.60;74.20;;;;;;6075854;23;20346;-81
2022/09/13 15:10:56;;;;;;;2.38;0.30;;;25.60;74.40;;;;;;6052908;23;20010;-82
2022/09/13 15:13:23;;;;;;;0.75;0.28;;;25.60;74.50;;;;;;6077888;23;20002;-81